Time;durP1;ratioP1;P1;durP2;ratioP2;P2;SDS_P1;SDS_P2;PMS_P1;PMS_P2;Temp;Humidity;BMP_temperature;BMP_pressure;BME280_temperature;BME280_humidity;BME280_pressure;Samples;Min_cycle;Max_cycle;Signal;HPM_P1;HPM_P2
2021/11/22 00:05:14;;;;;;;2.00;1.05;;;4.60;99.90;;;;;;4953307;23;20055;-85
2021/11/22 00:07:41;;;;;;;3.58;1.00;;;4.50;99.90;;;;;;4959841;28;20053;-84
2021/11/22 00:10:08;;;;;;;4.18;1.23;;;4.40;99.90;;;;;;4965450;28;20078;-84
2021/11/22 00:12:35;;;;;;;1.25;0.90;;;4.40;99.90;;;;;;4948204;28;20059;-84
2021/11/22 00:15:09;;;;;;;4.22;1.10;;;4.30;99.90;;;;;;4958743;28;20409;-84
2021/11/22 00:17:37;;;;;;;1.65;1.00;;;4.40;99.90;;;;;;4969032;28;20139;-84
2021/11/22 00:20:06;;;;;;;1.58;0.90;;;4.30;99.90;;;;;;4962709;28;20051;-86
2021/11/22 00:22:34;;;;;;;4.85;1.02;;;4.20;99.90;;;;;;4952293;28;20557;-86
2021/11/22 00:28:16;;;;;;;17.48;1.20;;;4.10;99.90;;;;;;4970510;28;20058;-86
2021/11/22 00:30:43;;;;;;;5.68;1.40;;;4.10;99.90;;;;;;4971205;28;20133;-86
2021/11/22 00:33:11;;;;;;;4.68;0.85;;;4.00;99.90;;;;;;4960857;28;20143;-86
2021/11/22 00:35:38;;;;;;;1.38;0.60;;;4.00;99.90;;;;;;4961753;28;20519;-86
2021/11/22 00:38:07;;;;;;;12.43;1.05;;;4.00;99.90;;;;;;4954424;28;20149;-86
2021/11/22 00:40:36;;;;;;;3.83;0.57;;;4.00;99.90;;;;;;4960103;28;20171;-86
2021/11/22 00:43:04;;;;;;;1.85;0.80;;;4.00;99.90;;;;;;4951121;29;20139;-85
2021/11/22 00:45:32;;;;;;;6.38;0.85;;;4.00;99.90;;;;;;4950280;23;20078;-78
2021/11/22 00:47:59;;;;;;;3.60;0.93;;;3.90;99.90;;;;;;4946926;29;20126;-78
2021/11/22 00:50:27;;;;;;;3.60;0.70;;;3.90;99.90;;;;;;4946777;29;20089;-77
2021/11/22 00:52:54;;;;;;;3.50;0.60;;;3.90;99.90;;;;;;4948374;29;20086;-77
2021/11/22 00:55:22;;;;;;;2.72;0.60;;;3.90;99.90;;;;;;4950750;23;20082;-84
2021/11/22 00:57:50;;;;;;;2.13;0.60;;;3.90;99.90;;;;;;4947110;29;20541;-84
2021/11/22 01:00:19;;;;;;;2.72;0.65;;;3.80;99.90;;;;;;4950456;29;20059;-85
2021/11/22 01:02:46;;;;;;;2.88;0.73;;;3.80;99.90;;;;;;4949692;29;20051;-85
2021/11/22 01:07:43;;;;;;;2.55;1.20;;;3.70;99.90;;;;;;4912446;29;20550;-78
2021/11/22 01:12:57;;;;;;;1.10;0.70;;;3.70;99.90;;;;;;4935578;28;20047;-84
2021/11/22 01:15:24;;;;;;;5.00;1.15;;;3.60;99.90;;;;;;4932389;29;20449;-84
2021/11/22 01:17:54;;;;;;;2.88;1.02;;;3.50;99.90;;;;;;4927324;29;20772;-85
2021/11/22 01:20:28;;;;;;;2.45;0.77;;;3.50;99.90;;;;;;4939981;29;20109;-86
2021/11/22 01:23:12;;;;;;;5.90;0.73;;;3.40;99.90;;;;;;4949265;29;20508;-85
2021/11/22 01:25:42;;;;;;;2.03;0.75;;;3.30;99.90;;;;;;4948811;29;20448;-85
2021/11/22 01:28:08;;;;;;;32.97;3.58;;;3.20;99.90;;;;;;4955684;29;20126;-84
2021/11/22 01:30:37;;;;;;;2.75;0.80;;;3.10;99.90;;;;;;4966284;28;20087;-85
2021/11/22 01:33:04;;;;;;;1.75;0.82;;;3.10;99.90;;;;;;4945458;29;20082;-85
2021/11/22 01:35:30;;;;;;;2.08;0.90;;;3.10;99.90;;;;;;4944787;29;20056;-84
2021/11/22 01:37:58;;;;;;;3.42;0.80;;;3.00;99.90;;;;;;4933858;29;20086;-85
2021/11/22 01:40:26;;;;;;;3.78;0.75;;;2.90;99.90;;;;;;4935383;29;20233;-84
2021/11/22 01:42:56;;;;;;;2.50;0.70;;;2.90;99.90;;;;;;4933738;29;20055;-83
2021/11/22 01:51:13;;;;;;;1.50;0.90;;;3.20;99.90;;;;;;4939051;28;20129;-77
2021/11/22 01:53:40;;;;;;;6.55;0.82;;;3.30;99.90;;;;;;4947503;29;20170;-78
2021/11/22 01:56:18;;;;;;;6.55;0.95;;;3.30;99.90;;;;;;4962176;23;20165;-77
2021/11/22 01:58:45;;;;;;;2.83;0.75;;;3.40;99.90;;;;;;4967467;28;20577;-77
2021/11/22 02:01:12;;;;;;;1.00;0.60;;;3.50;99.90;;;;;;4968586;28;20145;-77
2021/11/22 02:06:56;;;;;;;2.05;0.65;;;3.70;99.90;;;;;;4944734;29;20111;-84
2021/11/22 02:09:23;;;;;;;0.60;0.40;;;3.80;99.90;;;;;;4938906;29;20146;-84
2021/11/22 02:11:50;;;;;;;1.50;0.52;;;3.80;99.90;;;;;;4950128;29;20127;-84
2021/11/22 02:14:17;;;;;;;4.10;0.80;;;3.90;99.90;;;;;;4943223;29;20653;-84
2021/11/22 02:16:44;;;;;;;1.10;0.50;;;4.00;99.90;;;;;;4952937;29;20413;-84
2021/11/22 02:19:11;;;;;;;3.25;0.73;;;4.00;99.90;;;;;;4954573;29;20051;-84
2021/11/22 02:21:38;;;;;;;1.85;0.50;;;4.00;99.90;;;;;;4954197;29;20130;-84
2021/11/22 02:24:05;;;;;;;1.83;0.60;;;4.00;99.90;;;;;;4932767;28;20467;-84
2021/11/22 02:26:32;;;;;;;4.50;2.13;;;4.00;99.90;;;;;;4935315;29;20043;-84
2021/11/22 02:28:58;;;;;;;4.78;1.25;;;4.00;99.90;;;;;;4932699;29;20134;-84
2021/11/22 02:31:26;;;;;;;1.33;0.73;;;3.90;99.90;;;;;;4950977;29;20107;-85
2021/11/22 02:33:56;;;;;;;1.23;0.60;;;3.90;99.90;;;;;;4943154;29;20130;-84
2021/11/22 02:36:25;;;;;;;3.03;0.55;;;3.90;99.90;;;;;;4966050;28;20515;-85
2021/11/22 02:38:52;;;;;;;1.42;0.75;;;3.90;99.90;;;;;;4953431;29;20139;-85
2021/11/22 02:41:19;;;;;;;3.20;1.08;;;3.90;99.90;;;;;;4954552;29;20043;-84
2021/11/22 02:43:46;;;;;;;5.63;1.20;;;3.90;99.90;;;;;;4932783;29;20496;-84
2021/11/22 02:46:14;;;;;;;3.55;0.60;;;3.90;99.90;;;;;;4944354;29;20094;-84
2021/11/22 02:48:41;;;;;;;2.95;1.00;;;3.90;99.90;;;;;;4938054;29;20182;-84
2021/11/22 02:51:09;;;;;;;2.25;0.70;;;3.80;99.90;;;;;;4941009;29;20444;-84
2021/11/22 02:53:37;;;;;;;0.95;0.52;;;3.80;99.90;;;;;;4950543;29;20138;-84
2021/11/22 02:56:07;;;;;;;3.85;0.60;;;3.80;99.90;;;;;;4949754;29;20412;-84
2021/11/22 02:58:39;;;;;;;1.45;0.57;;;3.80;99.90;;;;;;4958036;28;20461;-84
2021/11/22 03:01:08;;;;;;;2.13;0.77;;;3.70;99.90;;;;;;4953262;29;20087;-83
2021/11/22 03:03:37;;;;;;;0.82;0.50;;;3.70;99.90;;;;;;4928948;29;20052;-83
2021/11/22 03:06:13;;;;;;;2.70;0.50;;;3.70;99.90;;;;;;4951916;23;20111;-84
2021/11/22 03:08:43;;;;;;;7.50;0.80;;;3.70;99.90;;;;;;4972811;28;20451;-83
2021/11/22 03:11:11;;;;;;;3.63;0.40;;;3.70;99.90;;;;;;4973811;28;20078;-84
2021/11/22 03:13:40;;;;;;;5.05;0.70;;;3.80;99.90;;;;;;4968882;28;20089;-84
2021/11/22 03:16:09;;;;;;;3.55;0.82;;;3.80;99.90;;;;;;4967494;28;20142;-84
2021/11/22 03:18:36;;;;;;;3.08;0.63;;;3.80;99.90;;;;;;4971996;28;20863;-83
2021/11/22 03:21:05;;;;;;;2.90;0.60;;;3.80;99.90;;;;;;4972154;28;20086;-83
2021/11/22 03:23:34;;;;;;;1.35;0.70;;;3.80;99.90;;;;;;4970379;28;20057;-84
2021/11/22 03:26:01;;;;;;;4.03;0.50;;;3.80;99.90;;;;;;4976981;23;20108;-78
2021/11/22 03:28:30;;;;;;;2.17;1.08;;;3.80;99.90;;;;;;4947131;28;20207;-78
2021/11/22 03:30:57;;;;;;;1.10;0.80;;;3.70;99.90;;;;;;4948934;28;20085;-77
2021/11/22 03:33:24;;;;;;;2.70;0.60;;;3.70;99.90;;;;;;4946601;28;20147;-78
2021/11/22 03:35:53;;;;;;;2.35;0.80;;;3.70;99.90;;;;;;4942447;28;20419;-77
2021/11/22 03:38:21;;;;;;;1.27;0.70;;;3.70;99.90;;;;;;4947394;28;20607;-77
2021/11/22 03:40:51;;;;;;;1.70;0.65;;;3.70;99.90;;;;;;4946960;29;20069;-77
2021/11/22 03:46:04;;;;;;;1.85;0.70;;;3.70;99.90;;;;;;4948248;28;20074;-77
2021/11/22 03:48:33;;;;;;;2.03;0.70;;;3.70;99.90;;;;;;4950499;28;20146;-78
2021/11/22 03:51:00;;;;;;;2.63;0.70;;;3.70;99.90;;;;;;4947687;29;20059;-77
2021/11/22 03:53:27;;;;;;;6.97;0.52;;;3.80;99.90;;;;;;4939819;29;20058;-78
2021/11/22 03:56:01;;;;;;;5.43;0.98;;;3.80;99.90;;;;;;4932770;28;20166;-84
2021/11/22 04:10:12;;;;;;;1.17;0.60;;;4.20;99.90;;;;;;4957113;28;20495;-83
2021/11/22 04:12:39;;;;;;;3.08;0.57;;;4.30;99.90;;;;;;4967935;28;20089;-83
2021/11/22 04:15:06;;;;;;;5.80;0.70;;;4.40;99.90;;;;;;4966991;28;20141;-83
2021/11/22 04:17:36;;;;;;;2.33;0.65;;;4.50;99.90;;;;;;4971519;28;20571;-83
2021/11/22 04:20:04;;;;;;;4.25;0.90;;;4.50;99.90;;;;;;4971087;28;20134;-82
2021/11/22 04:22:31;;;;;;;1.27;0.70;;;4.60;99.90;;;;;;4954403;28;20082;-83
2021/11/22 04:24:59;;;;;;;1.17;0.70;;;4.60;99.90;;;;;;4965415;28;20133;-83
2021/11/22 04:27:26;;;;;;;1.70;0.70;;;4.60;99.90;;;;;;4954346;28;20783;-77
2021/11/22 04:29:53;;;;;;;1.23;0.47;;;4.60;99.90;;;;;;4949383;28;20126;-77
2021/11/22 04:32:20;;;;;;;1.25;0.60;;;4.70;99.90;;;;;;4951560;28;20046;-84
2021/11/22 04:37:43;;;;;;;0.80;0.50;;;4.70;99.90;;;;;;4983434;28;20665;-83
2021/11/22 04:40:14;;;;;;;0.95;0.60;;;4.70;99.90;;;;;;4976738;28;20130;-83
2021/11/22 04:42:47;;;;;;;2.40;0.70;;;4.80;99.90;;;;;;4971730;28;20090;-83
2021/11/22 04:45:16;;;;;;;1.20;0.80;;;4.80;99.90;;;;;;4967575;28;20050;-83
2021/11/22 04:47:44;;;;;;;1.42;0.77;;;4.70;99.90;;;;;;4972137;28;20137;-83
2021/11/22 04:50:12;;;;;;;0.82;0.82;;;4.60;99.90;;;;;;4969778;28;20141;-83
2021/11/22 04:52:38;;;;;;;2.00;0.73;;;4.40;99.90;;;;;;4972830;28;20082;-84
2021/11/22 04:55:15;;;;;;;2.15;0.63;;;4.30;99.90;;;;;;4972611;28;20798;-83
2021/11/22 04:57:43;;;;;;;2.85;1.00;;;4.10;99.90;;;;;;4973401;28;20157;-83
2021/11/22 05:00:13;;;;;;;7.50;0.70;;;4.00;99.90;;;;;;4958694;28;20082;-83
2021/11/22 05:02:43;;;;;;;2.58;0.82;;;3.80;99.90;;;;;;4988423;28;20050;-83
2021/11/22 05:05:10;;;;;;;2.65;1.02;;;3.80;99.90;;;;;;4971763;28;20046;-83
2021/11/22 05:07:37;;;;;;;2.63;1.27;;;3.70;99.90;;;;;;4973306;28;20051;-83
2021/11/22 05:13:15;;;;;;;4.97;2.45;;;3.50;99.90;;;;;;5015574;28;20046;-77
2021/11/22 05:15:42;;;;;;;9.80;3.60;;;3.50;99.90;;;;;;4998659;28;20053;-77
2021/11/22 05:18:10;;;;;;;13.77;4.57;;;3.40;99.90;;;;;;5025306;28;20041;-77
2021/11/22 05:20:40;;;;;;;11.82;3.83;;;3.30;99.90;;;;;;5007684;28;20589;-77
2021/11/22 05:23:08;;;;;;;7.13;3.47;;;3.30;99.90;;;;;;5007451;28;20135;-76
2021/11/22 05:25:36;;;;;;;6.57;2.75;;;3.30;99.90;;;;;;4999575;28;20867;-77
2021/11/22 05:28:05;;;;;;;5.88;2.10;;;3.20;99.90;;;;;;5024969;28;20050;-76
2021/11/22 05:30:32;;;;;;;4.93;1.30;;;3.20;99.90;;;;;;4982992;23;20056;-77
2021/11/22 05:33:01;;;;;;;4.07;2.03;;;3.10;99.90;;;;;;4986343;28;20137;-77
2021/11/22 05:35:28;;;;;;;4.55;1.23;;;3.10;99.90;;;;;;5020194;23;20106;-83
2021/11/22 05:37:55;;;;;;;2.85;1.05;;;3.00;99.90;;;;;;5049115;28;20124;-83
2021/11/22 05:40:22;;;;;;;3.60;1.23;;;3.00;99.90;;;;;;5031854;28;20053;-83
2021/11/22 05:42:50;;;;;;;4.38;1.73;;;3.00;99.90;;;;;;5048854;28;20208;-82
2021/11/22 05:49:00;;;;;;;19.08;14.50;;;3.00;99.90;;;;;;5007620;28;20042;-83
2021/11/22 05:51:27;;;;;;;9.55;5.30;;;2.90;99.90;;;;;;5010675;28;20085;-83
2021/11/22 05:57:01;;;;;;;6.90;3.10;;;2.90;99.90;;;;;;4908352;29;20087;-83
2021/11/22 06:01:59;;;;;;;5.97;1.63;;;2.80;99.90;;;;;;4946742;29;20512;-77
2021/11/22 06:04:26;;;;;;;1.02;0.75;;;2.80;99.90;;;;;;4954052;23;20047;-84
2021/11/22 06:06:53;;;;;;;2.33;1.00;;;2.80;99.90;;;;;;4992181;23;20137;-75
2021/11/22 06:09:20;;;;;;;5.85;2.55;;;2.80;99.90;;;;;;5027534;28;20103;-78
2021/11/22 06:11:47;;;;;;;1.23;1.08;;;2.80;99.90;;;;;;5031999;28;20084;-80
2021/11/22 06:14:32;;;;;;;4.82;1.42;;;2.80;99.90;;;;;;5031094;28;20080;-81
2021/11/22 06:17:00;;;;;;;2.40;0.90;;;2.70;99.90;;;;;;5021880;28;20137;-83
2021/11/22 06:19:28;;;;;;;6.97;0.90;;;2.70;99.90;;;;;;5033017;28;20099;-79
2021/11/22 06:21:56;;;;;;;3.15;0.93;;;2.70;99.90;;;;;;5052329;28;20102;-83
2021/11/22 06:24:24;;;;;;;1.30;0.60;;;2.60;99.90;;;;;;5034386;28;20072;-79
2021/11/22 06:26:53;;;;;;;3.47;0.63;;;2.60;99.90;;;;;;5033730;28;20462;-85
2021/11/22 06:29:21;;;;;;;3.35;1.38;;;2.60;99.90;;;;;;5031687;28;20063;-76
2021/11/22 06:31:48;;;;;;;2.80;0.80;;;2.60;99.90;;;;;;5023926;28;20414;-78
2021/11/22 06:34:15;;;;;;;5.93;1.60;;;2.60;99.90;;;;;;5026562;28;20045;-76
2021/11/22 06:36:51;;;;;;;4.00;0.70;;;2.60;99.90;;;;;;5024863;28;20053;-74
2021/11/22 06:39:18;;;;;;;14.18;1.15;;;2.60;99.90;;;;;;5045733;28;20124;-77
2021/11/22 06:41:45;;;;;;;1.52;0.88;;;2.50;99.90;;;;;;5026991;28;20047;-75
2021/11/22 06:44:13;;;;;;;4.78;0.88;;;2.60;99.90;;;;;;5035412;28;20045;-75
2021/11/22 06:46:43;;;;;;;3.08;0.95;;;2.60;99.90;;;;;;5027509;28;20650;-75
2021/11/22 06:49:10;;;;;;;3.85;0.95;;;2.60;99.90;;;;;;5045372;28;20068;-75
2021/11/22 06:51:37;;;;;;;5.05;1.20;;;2.60;99.90;;;;;;5045983;28;20053;-75
2021/11/22 06:54:03;;;;;;;1.55;0.70;;;2.60;99.90;;;;;;5040890;28;20049;-74
2021/11/22 06:56:30;;;;;;;4.25;0.88;;;2.50;99.90;;;;;;5042864;28;20156;-74
2021/11/22 06:58:57;;;;;;;2.95;0.98;;;2.50;99.90;;;;;;5027713;28;20513;-75
2021/11/22 07:01:24;;;;;;;5.47;1.13;;;2.50;99.90;;;;;;5039235;28;20706;-74
2021/11/22 07:03:51;;;;;;;2.28;1.27;;;2.40;99.90;;;;;;5036829;28;20041;-75
2021/11/22 07:06:18;;;;;;;3.78;0.93;;;2.40;99.90;;;;;;5025503;28;20553;-74
2021/11/22 07:08:44;;;;;;;5.70;1.10;;;2.50;99.90;;;;;;5046485;28;20057;-74
2021/11/22 07:11:11;;;;;;;3.05;0.93;;;2.60;99.90;;;;;;5046106;28;20191;-75
2021/11/22 07:13:38;;;;;;;2.50;1.02;;;2.70;99.90;;;;;;5040322;28;20137;-74
2021/11/22 07:16:06;;;;;;;1.70;0.68;;;2.80;99.90;;;;;;5026053;28;20170;-75
2021/11/22 07:18:33;;;;;;;1.48;0.60;;;2.90;99.90;;;;;;5028347;28;20049;-75
2021/11/22 07:21:00;;;;;;;2.38;0.63;;;3.00;99.90;;;;;;5046969;28;20051;-75
2021/11/22 07:23:27;;;;;;;10.85;1.10;;;3.00;99.90;;;;;;5041907;28;20764;-75
2021/11/22 07:25:55;;;;;;;5.32;0.77;;;3.00;99.90;;;;;;5039756;28;20545;-75
2021/11/22 07:28:23;;;;;;;10.90;2.25;;;3.10;99.90;;;;;;5028229;28;20239;-74
2021/11/22 07:30:51;;;;;;;5.50;1.63;;;3.20;99.90;;;;;;5045172;28;20076;-75
2021/11/22 07:33:18;;;;;;;3.85;1.75;;;3.30;99.90;;;;;;5026523;28;20461;-75
2021/11/22 07:35:45;;;;;;;3.80;2.65;;;3.20;99.90;;;;;;5018946;28;20107;-74
2021/11/22 07:38:12;;;;;;;11.32;2.78;;;3.30;99.90;;;;;;5051856;28;20091;-75
2021/11/22 07:40:39;;;;;;;6.45;2.00;;;3.20;99.90;;;;;;5048991;28;20052;-74
2021/11/22 07:43:06;;;;;;;7.07;2.08;;;3.20;99.90;;;;;;5027502;28;20557;-74
2021/11/22 07:45:33;;;;;;;7.03;1.90;;;3.30;99.90;;;;;;5035912;28;20127;-75
2021/11/22 07:48:00;;;;;;;8.95;2.30;;;3.30;99.90;;;;;;5010688;28;20557;-75
2021/11/22 07:50:28;;;;;;;4.57;2.40;;;3.20;99.90;;;;;;5041557;28;20081;-75
2021/11/22 07:52:56;;;;;;;8.70;2.53;;;3.20;99.90;;;;;;5045268;28;20148;-75
2021/11/22 07:55:24;;;;;;;10.55;1.80;;;3.10;99.90;;;;;;5015928;23;20144;-81
2021/11/22 07:57:52;;;;;;;4.88;1.63;;;3.10;99.90;;;;;;5010299;28;20050;-82
2021/11/22 08:00:21;;;;;;;6.63;1.20;;;3.10;99.90;;;;;;5002442;28;20078;-82
2021/11/22 08:02:48;;;;;;;7.82;1.58;;;3.10;99.90;;;;;;5007490;28;20483;-82
2021/11/22 08:05:18;;;;;;;5.65;0.80;;;3.00;99.90;;;;;;4999813;28;20077;-81
2021/11/22 08:07:45;;;;;;;6.07;1.50;;;3.00;99.90;;;;;;5010119;28;20049;-81
2021/11/22 08:12:52;;;;;;;4.50;1.38;;;3.00;99.90;;;;;;5011080;28;20531;-81
2021/11/22 08:15:20;;;;;;;6.45;1.58;;;3.00;99.90;;;;;;4998469;28;20089;-81
2021/11/22 08:17:49;;;;;;;8.00;1.55;;;3.00;99.90;;;;;;4999369;28;20141;-81
2021/11/22 08:20:19;;;;;;;3.42;1.13;;;3.00;99.90;;;;;;5008933;28;20079;-81
2021/11/22 08:22:47;;;;;;;11.00;1.23;;;3.10;99.90;;;;;;5019951;28;20044;-81
2021/11/22 08:25:16;;;;;;;13.27;1.27;;;3.10;99.90;;;;;;5000794;28;20100;-80
2021/11/22 08:27:43;;;;;;;11.15;1.25;;;3.20;99.90;;;;;;5010801;28;20557;-81
2021/11/22 08:30:15;;;;;;;3.60;1.20;;;3.30;99.90;;;;;;5009976;28;20497;-81
2021/11/22 08:32:44;;;;;;;11.18;2.08;;;3.50;99.90;;;;;;4989643;28;20096;-81
2021/11/22 08:35:13;;;;;;;11.93;2.30;;;3.70;99.90;;;;;;4993840;28;20108;-81
2021/11/22 08:37:40;;;;;;;7.13;1.48;;;3.80;99.90;;;;;;5010482;28;20149;-81
2021/11/22 08:40:11;;;;;;;3.50;1.48;;;3.80;99.90;;;;;;5000073;28;20478;-81
2021/11/22 08:42:38;;;;;;;8.75;1.50;;;3.70;99.90;;;;;;5010391;28;20091;-81
2021/11/22 08:45:06;;;;;;;3.95;0.98;;;3.70;99.90;;;;;;4998404;28;20141;-81
2021/11/22 08:47:33;;;;;;;2.60;1.27;;;3.60;99.90;;;;;;4998548;28;20054;-81
2021/11/22 08:50:00;;;;;;;7.22;1.13;;;3.70;99.90;;;;;;5007594;28;20489;-80
2021/11/22 08:52:27;;;;;;;2.55;0.80;;;3.80;99.90;;;;;;4998901;28;20084;-81
2021/11/22 08:54:54;;;;;;;9.60;1.35;;;3.80;99.90;;;;;;4995096;28;20056;-81
2021/11/22 08:57:21;;;;;;;2.55;0.98;;;3.90;99.90;;;;;;5006813;28;20134;-81
2021/11/22 08:59:48;;;;;;;4.95;0.88;;;4.60;99.90;;;;;;5002077;28;20060;-81
2021/11/22 09:02:15;;;;;;;11.18;1.88;;;6.10;99.90;;;;;;4998531;28;20571;-81
2021/11/22 09:04:42;;;;;;;6.43;2.00;;;7.20;99.90;;;;;;4991424;28;20081;-81
2021/11/22 09:07:09;;;;;;;3.58;1.30;;;8.30;99.90;;;;;;5016985;28;20073;-81
2021/11/22 09:09:36;;;;;;;4.07;0.98;;;8.40;99.90;;;;;;5017759;28;20046;-81
2021/11/22 09:12:03;;;;;;;4.03;1.42;;;7.90;99.90;;;;;;5009313;28;20089;-80
2021/11/22 09:14:30;;;;;;;11.00;2.05;;;7.30;99.90;;;;;;5001358;28;20101;-81
2021/11/22 09:16:57;;;;;;;3.22;0.90;;;6.80;99.90;;;;;;5007911;28;20103;-81
2021/11/22 09:19:24;;;;;;;4.90;1.42;;;6.30;99.90;;;;;;5009600;28;20403;-81
2021/11/22 09:21:51;;;;;;;4.88;1.20;;;5.90;99.90;;;;;;5008773;28;20064;-81
2021/11/22 09:24:18;;;;;;;1.95;0.80;;;5.80;99.90;;;;;;4985811;28;20069;-81
2021/11/22 09:26:45;;;;;;;2.50;0.70;;;5.90;99.90;;;;;;5007900;28;20104;-81
2021/11/22 09:29:12;;;;;;;8.63;2.08;;;6.10;99.90;;;;;;4997038;28;20052;-81
2021/11/22 09:31:39;;;;;;;3.67;1.25;;;6.10;99.90;;;;;;5005066;28;20069;-81
2021/11/22 09:34:06;;;;;;;4.55;1.00;;;6.00;99.90;;;;;;4991542;28;20495;-81
2021/11/22 09:36:32;;;;;;;3.72;0.70;;;5.80;99.90;;;;;;5010828;28;20140;-81
2021/11/22 09:38:59;;;;;;;4.82;0.70;;;6.10;99.90;;;;;;5013174;28;20081;-81
2021/11/22 09:41:28;;;;;;;1.13;0.60;;;6.70;99.90;;;;;;5013714;28;20157;-81
2021/11/22 09:44:10;;;;;;;3.90;0.60;;;6.70;99.90;;;;;;4991639;28;20065;-81
2021/11/22 09:46:36;;;;;;;6.75;0.80;;;6.40;99.90;;;;;;4986322;28;20058;-74
2021/11/22 09:49:04;;;;;;;8.40;0.98;;;6.20;99.90;;;;;;5004096;28;20076;-74
2021/11/22 09:51:31;;;;;;;6.07;0.80;;;6.10;99.90;;;;;;5008376;28;20081;-74
2021/11/22 09:54:04;;;;;;;2.60;0.70;;;6.20;99.90;;;;;;4998057;28;20050;-74
2021/11/22 09:56:32;;;;;;;2.78;0.60;;;6.80;99.90;;;;;;5000781;28;20200;-74
2021/11/22 09:58:59;;;;;;;5.45;0.68;;;7.80;99.90;;;;;;4996493;28;20053;-74
2021/11/22 10:01:30;;;;;;;4.63;0.63;;;8.60;99.90;;;;;;4999559;28;20145;-75
2021/11/22 10:04:02;;;;;;;2.63;0.45;;;9.90;99.90;;;;;;4984192;28;20041;-75
2021/11/22 10:06:43;;;;;;;5.70;0.50;;;10.60;99.90;;;;;;5003749;28;20050;-74
2021/11/22 10:09:31;;;;;;;10.27;0.80;;;9.60;99.90;;;;;;4998404;28;20153;-74
2021/11/22 10:12:28;;;;;;;2.45;0.50;;;9.30;99.90;;;;;;4982748;28;20065;-74
2021/11/22 10:14:58;;;;;;;4.38;0.73;;;9.10;99.90;;;;;;4987257;28;20054;-74
2021/11/22 10:17:33;;;;;;;4.90;0.75;;;8.60;99.90;;;;;;4979329;28;20058;-74
2021/11/22 10:20:06;;;;;;;9.32;1.60;;;8.50;99.90;;;;;;4997737;28;20050;-75
2021/11/22 10:23:07;;;;;;;6.97;0.85;;;8.40;99.90;;;;;;4996492;28;20050;-75
2021/11/22 10:25:37;;;;;;;8.25;0.68;;;8.50;99.90;;;;;;4993264;28;20053;-74
2021/11/22 10:28:14;;;;;;;4.35;0.70;;;8.90;99.90;;;;;;4992710;28;20050;-75
2021/11/22 10:30:49;;;;;;;1.50;0.65;;;8.70;99.90;;;;;;4998222;28;20494;-74
2021/11/22 10:33:20;;;;;;;14.77;2.58;;;8.20;99.90;;;;;;4980105;28;20160;-75
2021/11/22 10:35:48;;;;;;;5.88;0.70;;;8.20;99.90;;;;;;4995384;28;20078;-74
2021/11/22 10:38:20;;;;;;;6.80;1.25;;;8.70;99.90;;;;;;4995018;28;20164;-75
2021/11/22 10:41:02;;;;;;;1.02;0.60;;;9.50;99.90;;;;;;5001605;28;20046;-75
2021/11/22 10:43:35;;;;;;;2.90;0.50;;;9.50;99.90;;;;;;4997972;28;20052;-75
2021/11/22 10:46:08;;;;;;;1.10;0.52;;;9.10;99.90;;;;;;4995456;28;20044;-74
2021/11/22 10:48:37;;;;;;;0.70;0.50;;;8.70;99.90;;;;;;5001849;28;20188;-74
2021/11/22 10:51:15;;;;;;;1.88;0.90;;;8.40;99.90;;;;;;5000555;28;20053;-74
2021/11/22 10:53:42;;;;;;;2.17;0.38;;;8.30;99.90;;;;;;4999934;28;20046;-74
2021/11/22 10:56:14;;;;;;;1.42;0.80;;;8.40;99.90;;;;;;4995264;28;20137;-74
2021/11/22 10:58:41;;;;;;;7.78;1.02;;;8.30;99.90;;;;;;4996750;28;20165;-74
2021/11/22 11:01:17;;;;;;;1.25;0.30;;;8.20;99.90;;;;;;5006484;28;20128;-74
2021/11/22 11:04:00;;;;;;;6.70;0.40;;;8.10;99.90;;;;;;4998163;28;20060;-75
2021/11/22 11:06:42;;;;;;;2.08;0.60;;;9.50;99.90;;;;;;5002931;28;20053;-75
2021/11/22 11:09:16;;;;;;;4.80;0.85;;;11.30;99.90;;;;;;5006384;28;20081;-75
2021/11/22 11:11:45;;;;;;;2.13;0.63;;;11.80;99.90;;;;;;5005332;28;20042;-75
2021/11/22 11:14:14;;;;;;;2.25;0.57;;;12.50;99.90;;;;;;5000507;28;20077;-74
2021/11/22 11:16:43;;;;;;;3.83;0.50;;;12.70;99.90;;;;;;4995724;28;20065;-75
2021/11/22 11:19:13;;;;;;;1.08;0.38;;;12.40;99.90;;;;;;4997192;28;20046;-75
2021/11/22 11:21:46;;;;;;;0.90;0.40;;;12.20;99.90;;;;;;5021471;28;20740;-74
2021/11/22 11:24:15;;;;;;;1.45;0.57;;;11.50;99.90;;;;;;5012772;28;20050;-75
2021/11/22 11:26:45;;;;;;;2.75;0.43;;;11.90;99.90;;;;;;4993998;28;20046;-75
2021/11/22 11:29:12;;;;;;;3.00;0.32;;;12.60;99.90;;;;;;5005324;28;20378;-75
2021/11/22 11:31:39;;;;;;;4.68;0.40;;;12.30;99.90;;;;;;4996573;28;20068;-74
2021/11/22 11:34:09;;;;;;;0.73;0.43;;;11.80;99.90;;;;;;4979937;28;20745;-75
2021/11/22 11:36:59;;;;;;;3.10;0.60;;;11.70;99.90;;;;;;4994685;28;20077;-74
2021/11/22 11:39:42;;;;;;;5.25;0.70;;;11.30;99.90;;;;;;5006107;28;20050;-74
2021/11/22 11:42:43;;;;;;;6.97;0.70;;;10.30;99.90;;;;;;4995200;28;20133;-74
2021/11/22 11:45:31;;;;;;;3.20;0.60;;;10.20;99.90;;;;;;4991227;28;20065;-74
2021/11/22 11:48:25;;;;;;;2.58;0.47;;;10.50;99.90;;;;;;4993772;28;20050;-74
2021/11/22 11:51:03;;;;;;;2.15;0.60;;;10.80;99.90;;;;;;4993017;28;20056;-74
2021/11/22 11:54:05;;;;;;;1.23;0.40;;;10.80;99.90;;;;;;4983306;28;20054;-74
2021/11/22 11:56:38;;;;;;;2.03;0.45;;;10.20;99.90;;;;;;4998987;28;20081;-74
2021/11/22 11:59:42;;;;;;;1.27;0.40;;;10.00;99.90;;;;;;4988403;28;20045;-75
2021/11/22 12:02:26;;;;;;;3.60;0.90;;;10.10;99.90;;;;;;4994505;28;20050;-75
2021/11/22 12:04:59;;;;;;;2.60;0.60;;;10.20;99.90;;;;;;4971242;28;20050;-74
2021/11/22 12:07:29;;;;;;;3.10;0.75;;;10.30;99.90;;;;;;4993750;28;20689;-74
2021/11/22 12:10:22;;;;;;;0.95;0.52;;;10.00;99.90;;;;;;4995799;28;20045;-75
2021/11/22 12:12:52;;;;;;;5.63;0.80;;;9.70;99.90;;;;;;4989284;28;20043;-74
2021/11/22 12:15:19;;;;;;;6.47;0.65;;;9.70;99.90;;;;;;5008351;23;20138;-74
2021/11/22 12:18:34;;;;;;;3.88;0.98;;;9.50;99.90;;;;;;5008836;28;20045;-74
2021/11/22 12:21:21;;;;;;;2.03;1.00;;;9.40;99.90;;;;;;5022396;28;20638;-74
2021/11/22 12:23:55;;;;;;;2.65;0.88;;;9.40;99.90;;;;;;5000230;28;20131;-74
2021/11/22 12:26:27;;;;;;;4.63;1.17;;;10.10;99.90;;;;;;5016109;28;20128;-74
2021/11/22 12:28:55;;;;;;;3.38;0.60;;;10.70;99.90;;;;;;5014711;28;20128;-74
2021/11/22 12:31:26;;;;;;;1.95;0.43;;;10.80;99.90;;;;;;5024000;28;20076;-74
2021/11/22 12:34:01;;;;;;;3.10;1.13;;;10.70;99.90;;;;;;4987936;28;20045;-74
2021/11/22 12:36:30;;;;;;;3.00;0.70;;;10.30;99.90;;;;;;5004845;28;20123;-74
2021/11/22 12:39:08;;;;;;;3.55;1.02;;;10.10;99.90;;;;;;5006640;28;20130;-74
2021/11/22 12:41:48;;;;;;;3.17;0.88;;;9.80;99.90;;;;;;5007508;28;20060;-74
2021/11/22 12:44:18;;;;;;;2.85;0.50;;;9.40;99.90;;;;;;5021974;28;20045;-74
2021/11/22 12:46:58;;;;;;;4.65;1.00;;;8.90;99.90;;;;;;5020179;28;20720;-73
2021/11/22 12:49:28;;;;;;;11.65;1.40;;;8.40;99.90;;;;;;5023651;28;20053;-72
2021/11/22 12:52:10;;;;;;;4.28;1.30;;;8.00;99.90;;;;;;5021046;28;20150;-73
2021/11/22 12:55:09;;;;;;;11.80;1.52;;;7.80;99.90;;;;;;4994531;28;20060;-74
2021/11/22 12:57:39;;;;;;;1.70;0.70;;;7.50;99.90;;;;;;4998895;28;20049;-73
2021/11/22 13:00:32;;;;;;;6.35;1.40;;;7.30;99.90;;;;;;5017205;28;20154;-73
2021/11/22 13:03:01;;;;;;;50.75;3.78;;;7.10;99.90;;;;;;5023231;28;20088;-72
2021/11/22 13:05:53;;;;;;;70.95;7.03;;;7.20;99.90;;;;;;5020149;28;20048;-72
2021/11/22 13:08:20;;;;;;;7.78;1.55;;;7.20;99.90;;;;;;5004605;28;20045;-73
2021/11/22 13:10:52;;;;;;;5.13;2.17;;;7.10;99.90;;;;;;5006130;28;20076;-73
2021/11/22 13:13:30;;;;;;;11.20;2.75;;;7.10;99.90;;;;;;5005660;28;20059;-74
2021/11/22 13:15:59;;;;;;;3.90;1.42;;;7.10;99.90;;;;;;4998761;28;20493;-73
2021/11/22 13:18:29;;;;;;;5.28;1.30;;;7.00;99.90;;;;;;5026385;28;20084;-73
2021/11/22 13:20:58;;;;;;;11.27;1.67;;;7.10;99.90;;;;;;5026154;28;20088;-73
2021/11/22 13:23:34;;;;;;;4.20;0.98;;;7.40;99.90;;;;;;5001849;28;20057;-73
2021/11/22 13:26:03;;;;;;;1.73;0.75;;;7.70;99.90;;;;;;5004805;28;20052;-73
2021/11/22 13:28:35;;;;;;;2.78;0.88;;;8.00;99.90;;;;;;5009557;28;20093;-73
2021/11/22 13:31:10;;;;;;;4.82;0.80;;;7.80;99.90;;;;;;5028127;28;20084;-73
2021/11/22 13:33:37;;;;;;;7.18;1.13;;;7.70;99.90;;;;;;4998920;28;20082;-73
2021/11/22 13:36:04;;;;;;;4.05;0.68;;;8.00;99.90;;;;;;5022888;28;20053;-73
2021/11/22 13:38:33;;;;;;;2.85;0.80;;;8.00;99.90;;;;;;5018846;28;20185;-73
2021/11/22 13:41:16;;;;;;;10.25;0.93;;;8.10;99.90;;;;;;5026631;28;20084;-73
2021/11/22 13:43:45;;;;;;;3.15;0.73;;;8.50;99.90;;;;;;5021535;28;20057;-75
2021/11/22 13:46:14;;;;;;;6.55;1.15;;;9.00;99.90;;;;;;5024635;28;20127;-74
2021/11/22 13:48:53;;;;;;;11.82;0.80;;;9.30;99.90;;;;;;5009403;28;20053;-74
2021/11/22 13:51:21;;;;;;;4.47;0.60;;;9.60;99.90;;;;;;5027176;28;20121;-75
2021/11/22 13:53:50;;;;;;;2.08;0.52;;;9.70;99.90;;;;;;5001097;28;20751;-74
2021/11/22 13:56:29;;;;;;;8.70;0.90;;;9.80;99.90;;;;;;5023562;28;20073;-74
2021/11/22 13:58:57;;;;;;;3.78;0.70;;;9.80;99.90;;;;;;5008507;28;20092;-74
2021/11/22 14:01:26;;;;;;;2.00;0.75;;;9.60;99.90;;;;;;5026607;28;20116;-73
2021/11/22 14:04:00;;;;;;;12.20;0.95;;;9.40;99.90;;;;;;5019011;28;20049;-73
2021/11/22 14:06:30;;;;;;;3.22;0.65;;;9.00;99.90;;;;;;5004275;28;20053;-73